Time;durP1;ratioP1;P1;durP2;ratioP2;P2;SDS_P1;SDS_P2;PMS_P1;PMS_P2;Temp;Humidity;BMP_temperature;BMP_pressure;BME280_temperature;BME280_humidity;BME280_pressure;Samples;Min_cycle;Max_cycle;Signal;HPM_P1;HPM_P2
2023/11/01 00:01:38;;;;;;;1.40;1.30;;;8.40;99.90;;;;;;5002370;28;20080;-30
2023/11/01 00:04:04;;;;;;;1.23;1.17;;;8.20;99.90;;;;;;4989607;28;22149;-30
2023/11/01 00:06:30;;;;;;;3.25;1.38;;;8.10;99.90;;;;;;5005958;28;20018;-31
2023/11/01 00:08:56;;;;;;;1.58;1.45;;;8.10;99.90;;;;;;5003943;28;20034;-31
2023/11/01 00:11:22;;;;;;;1.75;1.25;;;8.10;99.90;;;;;;5003446;28;20026;-31
2023/11/01 00:13:48;;;;;;;1.48;1.20;;;8.10;99.90;;;;;;5003015;28;20376;-30
2023/11/01 00:16:14;;;;;;;1.73;1.60;;;8.10;99.90;;;;;;5007288;28;20030;-30
2023/11/01 00:18:40;;;;;;;1.42;1.33;;;8.10;99.90;;;;;;5004629;28;20041;-34
2023/11/01 00:21:05;;;;;;;1.63;1.52;;;8.10;99.90;;;;;;5006600;28;20526;-31
2023/11/01 00:23:31;;;;;;;2.13;2.00;;;8.20;99.90;;;;;;5005616;28;20121;-30
2023/11/01 00:25:57;;;;;;;1.27;1.20;;;8.20;99.90;;;;;;4989339;28;20029;-30
2023/11/01 00:28:23;;;;;;;3.40;1.38;;;8.30;99.90;;;;;;5005627;28;20124;-30
2023/11/01 00:30:48;;;;;;;2.60;2.05;;;8.40;99.90;;;;;;4998434;28;20096;-30
2023/11/01 00:33:14;;;;;;;2.17;1.73;;;8.40;99.90;;;;;;5003877;28;20037;-30
2023/11/01 00:35:39;;;;;;;2.97;1.40;;;8.50;99.90;;;;;;5006606;28;20073;-34
2023/11/01 00:38:06;;;;;;;5.85;1.60;;;8.60;99.90;;;;;;5004941;28;20059;-30
2023/11/01 00:40:31;;;;;;;3.70;1.73;;;8.60;99.90;;;;;;5008262;28;20449;-30
2023/11/01 00:42:57;;;;;;;2.97;1.20;;;8.70;99.90;;;;;;5005057;28;20053;-32
2023/11/01 00:45:23;;;;;;;1.60;1.23;;;8.70;99.90;;;;;;5005648;28;20083;-29
2023/11/01 00:47:48;;;;;;;5.60;1.95;;;8.80;99.90;;;;;;5003013;28;20026;-30
2023/11/01 00:50:14;;;;;;;9.05;7.13;;;8.80;99.90;;;;;;5002688;28;20030;-30
2023/11/01 00:52:40;;;;;;;2.25;1.35;;;8.90;99.90;;;;;;5003477;28;20030;-36
2023/11/01 00:55:05;;;;;;;1.30;1.20;;;8.90;99.90;;;;;;5005612;28;20022;-30
2023/11/01 00:57:32;;;;;;;1.33;1.23;;;9.00;99.90;;;;;;5005540;28;20084;-32
2023/11/01 00:59:58;;;;;;;0.90;0.90;;;9.00;99.90;;;;;;5006336;28;20018;-31
2023/11/01 01:02:24;;;;;;;1.70;1.60;;;9.00;99.90;;;;;;5004487;28;20034;-33
2023/11/01 01:04:49;;;;;;;4.32;0.98;;;9.00;99.90;;;;;;5004409;28;20037;-34
2023/11/01 01:07:15;;;;;;;2.70;2.50;;;9.00;99.90;;;;;;5003655;28;20551;-33
2023/11/01 01:09:41;;;;;;;2.63;2.00;;;9.10;99.90;;;;;;5003884;28;20037;-34
2023/11/01 01:12:07;;;;;;;1.90;1.80;;;9.10;99.90;;;;;;5005047;28;20328;-33
2023/11/01 01:14:32;;;;;;;1.23;1.10;;;9.10;99.90;;;;;;5003471;28;20074;-32
2023/11/01 01:16:58;;;;;;;1.50;1.40;;;9.10;99.90;;;;;;5001640;28;20038;-32
2023/11/01 01:19:23;;;;;;;0.98;0.98;;;9.00;99.90;;;;;;5003376;28;20038;-32
2023/11/01 01:21:49;;;;;;;0.90;0.90;;;9.10;99.90;;;;;;5003236;28;20420;-35
2023/11/01 01:24:15;;;;;;;1.17;1.05;;;9.10;99.90;;;;;;5003665;28;20028;-32
2023/11/01 01:26:40;;;;;;;1.20;1.10;;;9.10;99.90;;;;;;5002820;28;20162;-37
2023/11/01 01:29:06;;;;;;;1.00;0.90;;;9.10;99.90;;;;;;5003797;28;20057;-35
2023/11/01 01:31:33;;;;;;;1.00;1.00;;;9.10;99.90;;;;;;5003327;28;20038;-32
2023/11/01 01:33:59;;;;;;;1.50;1.40;;;9.10;99.90;;;;;;5003197;28;20120;-36
2023/11/01 01:36:26;;;;;;;1.27;1.05;;;9.20;99.90;;;;;;5002957;28;20040;-32
2023/11/01 01:38:52;;;;;;;1.25;1.08;;;9.20;99.90;;;;;;5002560;28;20065;-32
2023/11/01 01:41:17;;;;;;;1.30;1.02;;;9.20;99.90;;;;;;5003140;28;20858;-32
2023/11/01 01:43:43;;;;;;;1.02;1.02;;;9.20;99.90;;;;;;5004749;28;20070;-32
2023/11/01 01:46:17;;;;;;;3.03;1.20;;;9.20;99.90;;;;;;5003341;28;20129;-33
2023/11/01 01:48:45;;;;;;;2.08;1.00;;;9.30;99.90;;;;;;5003234;28;20022;-32
2023/11/01 01:51:12;;;;;;;0.90;0.90;;;9.30;99.90;;;;;;5003093;28;20057;-37
2023/11/01 01:53:40;;;;;;;1.13;1.10;;;9.20;99.90;;;;;;5001431;28;20042;-31
2023/11/01 01:56:10;;;;;;;1.42;1.20;;;9.30;99.90;;;;;;5002781;28;20037;-36
2023/11/01 01:58:37;;;;;;;2.80;1.38;;;9.30;99.90;;;;;;5001915;28;20041;-33
2023/11/01 02:01:04;;;;;;;0.90;0.90;;;9.30;99.90;;;;;;4999437;28;20105;-33
2023/11/01 02:03:30;;;;;;;1.50;0.85;;;9.30;99.90;;;;;;5002081;28;20092;-35
2023/11/01 02:05:56;;;;;;;1.45;0.80;;;9.30;99.90;;;;;;5002325;28;20072;-32
2023/11/01 02:08:22;;;;;;;1.25;0.70;;;9.20;99.90;;;;;;5001931;28;20049;-35
2023/11/01 02:10:47;;;;;;;1.23;0.70;;;9.20;99.90;;;;;;5003247;28;20518;-36
2023/11/01 02:13:16;;;;;;;0.80;0.80;;;9.20;99.90;;;;;;5001547;28;20022;-39
2023/11/01 02:15:43;;;;;;;1.17;0.93;;;9.20;99.90;;;;;;5000313;28;20034;-36
2023/11/01 02:18:10;;;;;;;0.63;0.63;;;9.20;99.90;;;;;;5003333;28;20042;-38
2023/11/01 02:20:37;;;;;;;0.70;0.70;;;9.20;99.90;;;;;;5000395;28;20037;-39
2023/11/01 02:23:11;;;;;;;0.80;0.80;;;9.20;99.90;;;;;;5002652;28;20113;-30
2023/11/01 02:25:37;;;;;;;0.80;0.80;;;9.20;99.90;;;;;;5003751;28;20034;-31
2023/11/01 02:28:07;;;;;;;0.52;0.52;;;9.10;99.90;;;;;;5003161;28;20042;-30
2023/11/01 02:30:32;;;;;;;0.90;0.90;;;9.10;99.90;;;;;;5002149;28;20123;-35
2023/11/01 02:32:58;;;;;;;0.80;0.80;;;9.10;99.90;;;;;;5003030;28;20463;-30
2023/11/01 02:35:24;;;;;;;1.95;1.20;;;9.10;99.90;;;;;;4981046;28;20046;-30
2023/11/01 02:37:50;;;;;;;0.75;0.75;;;9.00;99.90;;;;;;4998289;28;20030;-30
2023/11/01 02:40:16;;;;;;;1.20;0.90;;;9.10;99.90;;;;;;5002536;28;20470;-30
2023/11/01 02:42:43;;;;;;;1.30;0.82;;;9.00;99.90;;;;;;5003510;28;20049;-31
2023/11/01 02:45:10;;;;;;;0.90;0.90;;;9.00;99.90;;;;;;5004037;28;20120;-30
2023/11/01 02:47:40;;;;;;;1.08;1.00;;;9.00;99.90;;;;;;5003907;28;20034;-34
2023/11/01 02:50:08;;;;;;;0.73;0.73;;;8.90;99.90;;;;;;5000253;28;20042;-31
2023/11/01 02:52:33;;;;;;;1.02;0.70;;;8.90;99.90;;;;;;5002503;28;20046;-31
2023/11/01 02:55:06;;;;;;;1.77;1.00;;;8.80;99.90;;;;;;5004808;28;20415;-31
2023/11/01 02:57:32;;;;;;;0.82;0.82;;;8.70;99.90;;;;;;5005143;28;20112;-31
2023/11/01 03:00:00;;;;;;;3.03;0.90;;;8.70;99.90;;;;;;5002150;28;20455;-31
2023/11/01 03:02:25;;;;;;;0.88;0.73;;;8.60;99.90;;;;;;5003063;28;20777;-30
2023/11/01 03:04:51;;;;;;;0.82;0.82;;;8.60;99.90;;;;;;5001498;28;20042;-33
2023/11/01 03:07:17;;;;;;;1.27;0.80;;;8.60;99.90;;;;;;5002819;28;20037;-30
2023/11/01 03:09:43;;;;;;;1.08;1.00;;;8.60;99.90;;;;;;5003285;28;20158;-31
2023/11/01 03:12:09;;;;;;;2.53;0.80;;;8.60;99.90;;;;;;5004402;28;20070;-30
2023/11/01 03:14:38;;;;;;;0.85;0.85;;;8.60;99.90;;;;;;5003882;28;20042;-37
2023/11/01 03:17:05;;;;;;;1.27;1.17;;;8.60;99.90;;;;;;5003429;28;20030;-31
2023/11/01 03:19:31;;;;;;;3.03;1.20;;;8.60;99.90;;;;;;5003200;28;20038;-31
2023/11/01 03:21:56;;;;;;;1.75;0.90;;;8.50;99.90;;;;;;5001578;28;20041;-38
2023/11/01 03:24:22;;;;;;;0.98;0.90;;;8.60;99.90;;;;;;5001592;28;20045;-40
2023/11/01 03:26:47;;;;;;;1.17;0.98;;;8.50;99.90;;;;;;5000659;28;20435;-40
2023/11/01 03:29:13;;;;;;;1.15;1.08;;;8.50;99.90;;;;;;5002847;28;20076;-39
2023/11/01 03:31:39;;;;;;;1.92;0.90;;;8.50;99.90;;;;;;4998954;28;20061;-41
2023/11/01 03:34:04;;;;;;;0.63;0.63;;;8.50;99.90;;;;;;5001075;28;20050;-42
2023/11/01 03:36:30;;;;;;;1.42;0.80;;;8.40;99.90;;;;;;5000978;28;20124;-41
2023/11/01 03:38:56;;;;;;;1.42;0.70;;;8.20;99.90;;;;;;5001626;28;20042;-40
2023/11/01 03:41:21;;;;;;;1.95;0.73;;;8.20;99.90;;;;;;5001413;28;20034;-38
2023/11/01 03:43:48;;;;;;;0.70;0.70;;;8.10;99.90;;;;;;5003051;28;20057;-43
2023/11/01 03:46:13;;;;;;;1.30;0.70;;;8.10;99.90;;;;;;5001568;28;20048;-38
2023/11/01 03:48:39;;;;;;;1.33;0.93;;;8.20;99.90;;;;;;5001413;28;20022;-42
2023/11/01 03:51:05;;;;;;;0.70;0.70;;;8.20;99.90;;;;;;5002855;28;20076;-42
2023/11/01 03:53:31;;;;;;;2.03;1.08;;;8.20;99.90;;;;;;4997348;28;20030;-38
2023/11/01 03:55:57;;;;;;;1.20;0.75;;;8.30;99.90;;;;;;5002566;28;20519;-41
2023/11/01 03:58:23;;;;;;;1.50;0.80;;;8.30;99.90;;;;;;5001485;28;20040;-40
2023/11/01 04:00:50;;;;;;;0.70;0.70;;;8.20;99.90;;;;;;4999214;28;20030;-36
2023/11/01 04:03:16;;;;;;;0.63;0.63;;;8.10;99.90;;;;;;5001622;28;20080;-39
2023/11/01 04:05:41;;;;;;;0.90;0.90;;;8.10;99.90;;;;;;5000121;28;20042;-37
2023/11/01 04:08:07;;;;;;;1.67;0.68;;;8.10;99.90;;;;;;4999696;28;20033;-37
2023/11/01 04:10:33;;;;;;;1.17;1.00;;;8.10;99.90;;;;;;5001515;28;20691;-39
2023/11/01 04:12:58;;;;;;;1.40;0.80;;;8.10;99.90;;;;;;5000712;28;20025;-41
2023/11/01 04:15:24;;;;;;;0.70;0.70;;;8.10;99.90;;;;;;4999543;28;20499;-42
2023/11/01 04:17:50;;;;;;;1.75;0.90;;;8.10;99.90;;;;;;5005433;28;20574;-41
2023/11/01 04:20:16;;;;;;;0.88;0.88;;;8.10;99.90;;;;;;5003030;28;20479;-43
2023/11/01 04:22:41;;;;;;;2.95;0.75;;;8.10;99.90;;;;;;5000580;28;20617;-36
2023/11/01 04:25:11;;;;;;;0.80;0.80;;;8.00;99.90;;;;;;5005602;28;20046;-43
2023/11/01 04:27:41;;;;;;;0.65;0.65;;;8.00;99.90;;;;;;5002675;28;20188;-34
2023/11/01 04:30:10;;;;;;;1.15;0.73;;;8.00;99.90;;;;;;5003083;28;20030;-42
2023/11/01 04:32:36;;;;;;;0.77;0.77;;;8.00;99.90;;;;;;5003620;28;20034;-39
2023/11/01 04:35:03;;;;;;;0.80;0.80;;;7.90;99.90;;;;;;4999925;28;20053;-39
2023/11/01 04:37:32;;;;;;;1.15;0.95;;;7.90;99.90;;;;;;5004444;28;20105;-41
2023/11/01 04:39:58;;;;;;;1.40;0.80;;;7.80;99.90;;;;;;5003520;28;20168;-37
2023/11/01 04:42:23;;;;;;;2.13;1.13;;;7.70;99.90;;;;;;5005490;28;20108;-39
2023/11/01 04:44:49;;;;;;;1.55;0.90;;;7.60;99.90;;;;;;5003359;28;20045;-40
2023/11/01 04:47:14;;;;;;;1.13;0.82;;;7.60;99.90;;;;;;5004520;28;20522;-38
2023/11/01 04:49:40;;;;;;;1.67;0.90;;;7.70;99.90;;;;;;5003753;28;20080;-36
2023/11/01 04:52:06;;;;;;;0.98;0.90;;;7.80;99.90;;;;;;4986968;28;20099;-37
2023/11/01 04:54:33;;;;;;;1.15;1.05;;;7.80;99.90;;;;;;5005521;28;20022;-40
2023/11/01 04:57:00;;;;;;;2.15;1.30;;;7.80;99.90;;;;;;5003749;28;20029;-38
2023/11/01 04:59:30;;;;;;;2.17;1.00;;;7.80;99.90;;;;;;5001322;28;20022;-37
2023/11/01 05:01:59;;;;;;;1.58;1.00;;;7.80;99.90;;;;;;5003723;28;20038;-40
2023/11/01 05:04:24;;;;;;;1.05;0.98;;;7.80;99.90;;;;;;5002719;28;20046;-40
2023/11/01 05:06:50;;;;;;;1.30;1.20;;;7.70;99.90;;;;;;5003940;28;20037;-40
2023/11/01 05:09:17;;;;;;;1.58;1.20;;;7.70;99.90;;;;;;5001532;28;20030;-39
2023/11/01 05:11:45;;;;;;;1.63;1.00;;;7.60;99.90;;;;;;5006595;28;20372;-40
2023/11/01 05:14:11;;;;;;;0.80;0.80;;;7.60;99.90;;;;;;5001737;28;20581;-37
2023/11/01 05:16:37;;;;;;;1.65;1.00;;;7.70;99.90;;;;;;5004424;28;20022;-39
2023/11/01 05:19:02;;;;;;;0.80;0.80;;;7.70;99.90;;;;;;5002713;28;20030;-39
2023/11/01 05:21:28;;;;;;;0.90;0.90;;;7.60;99.90;;;;;;5001737;28;20062;-40
2023/11/01 05:23:53;;;;;;;0.80;0.80;;;7.60;99.90;;;;;;5001592;28;20022;-40
2023/11/01 05:26:19;;;;;;;0.82;0.80;;;7.50;99.90;;;;;;5004347;28;20058;-39
2023/11/01 05:28:44;;;;;;;2.45;0.90;;;7.50;99.90;;;;;;5004393;28;20022;-39
2023/11/01 05:31:10;;;;;;;0.88;0.88;;;7.50;99.90;;;;;;4999799;28;20050;-35
2023/11/01 05:33:36;;;;;;;1.02;0.90;;;7.50;99.90;;;;;;5002557;28;20096;-39
2023/11/01 05:36:06;;;;;;;0.73;0.73;;;7.40;99.90;;;;;;5001284;28;20034;-34
2023/11/01 05:38:35;;;;;;;3.38;1.02;;;7.40;99.90;;;;;;5001946;28;20029;-40
2023/11/01 05:41:00;;;;;;;0.90;0.90;;;7.40;99.90;;;;;;5002249;28;20688;-39
2023/11/01 05:43:26;;;;;;;1.02;1.00;;;7.40;99.90;;;;;;5003683;28;20088;-39
2023/11/01 05:45:52;;;;;;;0.90;0.90;;;7.40;99.90;;;;;;5003804;28;20053;-40
2023/11/01 05:48:18;;;;;;;1.08;0.90;;;7.30;99.90;;;;;;5005006;28;20038;-40
2023/11/01 05:50:44;;;;;;;1.05;1.05;;;7.30;99.90;;;;;;5000403;28;20026;-40
2023/11/01 05:53:10;;;;;;;1.00;0.95;;;7.20;99.90;;;;;;5002528;28;20419;-33
2023/11/01 05:55:39;;;;;;;1.05;0.88;;;7.10;99.90;;;;;;5002120;28;20038;-32
2023/11/01 05:58:08;;;;;;;;;;;7.10;99.90;;;;;;5005690;28;20399;-33
2023/11/01 06:00:35;;;;;;;3.03;0.82;;;7.10;99.90;;;;;;5000949;28;19945;-35
2023/11/01 06:03:01;;;;;;;0.93;0.93;;;7.10;99.90;;;;;;5002441;28;20863;-32
2023/11/01 06:05:26;;;;;;;1.00;1.00;;;7.00;99.90;;;;;;5002710;28;20171;-36
2023/11/01 06:07:53;;;;;;;0.75;0.75;;;7.00;99.90;;;;;;5002487;28;20039;-33
2023/11/01 06:10:19;;;;;;;0.80;0.80;;;7.00;99.90;;;;;;5001528;28;20030;-34
2023/11/01 06:12:45;;;;;;;1.08;0.82;;;7.10;99.90;;;;;;5002498;28;20026;-33
2023/11/01 06:15:11;;;;;;;3.85;1.25;;;7.00;99.90;;;;;;5001465;28;20079;-35
2023/11/01 06:17:37;;;;;;;1.10;0.90;;;7.00;99.90;;;;;;4999151;28;20036;-36
2023/11/01 06:20:06;;;;;;;0.93;0.93;;;7.00;99.90;;;;;;4999931;28;20029;-36
2023/11/01 06:22:32;;;;;;;1.05;0.98;;;6.80;99.90;;;;;;5001625;28;20032;-33
2023/11/01 06:24:58;;;;;;;0.98;0.98;;;6.80;99.90;;;;;;4998499;28;20057;-33
2023/11/01 06:27:24;;;;;;;1.00;0.90;;;6.80;99.90;;;;;;5000813;28;20034;-34
2023/11/01 06:29:50;;;;;;;3.22;1.00;;;6.80;99.90;;;;;;4984388;28;20030;-38
2023/11/01 06:32:15;;;;;;;0.80;0.80;;;6.90;99.90;;;;;;5000245;28;20033;-34
2023/11/01 06:34:41;;;;;;;0.80;0.80;;;6.90;99.90;;;;;;4998462;28;20057;-37
2023/11/01 06:37:07;;;;;;;0.95;0.90;;;6.90;99.90;;;;;;5000003;28;20083;-34
2023/11/01 06:39:33;;;;;;;2.30;1.00;;;6.80;99.90;;;;;;4998111;28;20021;-35
2023/11/01 06:41:58;;;;;;;1.67;1.23;;;6.80;99.90;;;;;;5002310;28;20026;-33
2023/11/01 06:44:25;;;;;;;0.95;0.88;;;6.80;99.90;;;;;;5002964;28;20030;-34
2023/11/01 06:46:51;;;;;;;1.10;1.10;;;6.70;99.90;;;;;;5002105;28;20030;-32
2023/11/01 06:49:16;;;;;;;0.90;0.90;;;6.70;99.90;;;;;;5003660;28;20533;-32
2023/11/01 06:51:42;;;;;;;1.20;0.90;;;6.60;99.90;;;;;;5002069;28;20037;-37
2023/11/01 06:54:08;;;;;;;2.53;1.10;;;6.60;99.90;;;;;;4983601;28;20040;-38
2023/11/01 06:56:33;;;;;;;2.20;1.00;;;6.60;99.90;;;;;;4999814;28;20029;-39
2023/11/01 06:58:59;;;;;;;1.17;1.10;;;6.60;99.90;;;;;;4987049;28;20598;-38
2023/11/01 07:01:25;;;;;;;1.38;1.20;;;6.50;99.90;;;;;;5000688;28;20041;-37
2023/11/01 07:03:50;;;;;;;2.92;1.10;;;6.40;99.90;;;;;;5002625;28;20026;-37
2023/11/01 07:06:16;;;;;;;1.33;1.20;;;6.50;99.90;;;;;;5003104;28;20101;-37
2023/11/01 07:08:44;;;;;;;1.05;0.90;;;6.50;99.90;;;;;;4980288;28;20072;-34
2023/11/01 07:11:10;;;;;;;0.90;0.90;;;6.50;99.90;;;;;;5000506;28;20033;-36
2023/11/01 07:13:36;;;;;;;2.15;1.10;;;6.60;99.90;;;;;;5001506;28;20018;-37
2023/11/01 07:16:04;;;;;;;1.10;1.00;;;6.60;99.90;;;;;;5000784;28;20474;-33
2023/11/01 07:18:29;;;;;;;1.00;1.00;;;6.60;99.90;;;;;;5001392;28;20065;-39
2023/11/01 07:20:55;;;;;;;1.38;1.27;;;6.50;99.90;;;;;;5002304;28;20311;-38
2023/11/01 07:23:21;;;;;;;1.40;0.90;;;6.60;99.90;;;;;;4998549;28;20033;-39
2023/11/01 07:25:46;;;;;;;2.10;1.00;;;6.60;99.90;;;;;;4997371;28;20547;-39
2023/11/01 07:28:12;;;;;;;1.13;0.95;;;6.60;99.90;;;;;;5001501;28;20029;-39
2023/11/01 07:30:38;;;;;;;1.10;0.93;;;6.60;99.90;;;;;;4997852;28;20030;-39
2023/11/01 07:33:03;;;;;;;1.85;1.02;;;6.70;99.90;;;;;;4999720;28;20471;-37
2023/11/01 07:35:29;;;;;;;0.98;0.93;;;6.70;99.90;;;;;;5000481;28;20046;-37
2023/11/01 07:37:55;;;;;;;2.28;1.00;;;6.80;99.90;;;;;;4999845;28;20129;-37
2023/11/01 07:40:20;;;;;;;1.92;0.88;;;6.90;99.90;;;;;;5000282;28;20034;-38
2023/11/01 07:42:46;;;;;;;0.80;0.80;;;7.00;99.90;;;;;;4997743;28;20042;-39
2023/11/01 07:45:12;;;;;;;1.95;1.55;;;7.10;99.90;;;;;;4998596;28;20041;-36
2023/11/01 07:47:38;;;;;;;1.05;0.80;;;7.10;99.90;;;;;;4991753;28;20736;-37
2023/11/01 07:50:05;;;;;;;0.80;0.80;;;7.20;99.90;;;;;;4994684;28;20030;-37
2023/11/01 07:52:31;;;;;;;0.95;0.95;;;7.30;99.90;;;;;;5001216;28;20018;-37
2023/11/01 07:54:57;;;;;;;2.10;1.13;;;7.30;99.90;;;;;;5004322;28;20030;-37
2023/11/01 07:57:22;;;;;;;1.30;1.20;;;7.40;99.90;;;;;;5003181;28;20026;-39
2023/11/01 07:59:48;;;;;;;0.75;0.75;;;7.40;99.90;;;;;;5001776;28;21471;-40
2023/11/01 08:02:14;;;;;;;1.58;1.00;;;7.40;99.90;;;;;;5002345;28;20038;-40
2023/11/01 08:04:40;;;;;;;1.00;1.00;;;7.50;99.90;;;;;;5004316;28;20518;-35
2023/11/01 08:07:05;;;;;;;1.20;1.10;;;7.60;99.90;;;;;;5002828;28;20185;-37
2023/11/01 08:09:31;;;;;;;1.15;1.10;;;7.70;99.90;;;;;;5000450;28;20026;-39
2023/11/01 08:11:57;;;;;;;4.75;1.13;;;7.70;99.90;;;;;;5002305;28;20026;-39
2023/11/01 08:14:23;;;;;;;1.40;1.30;;;7.80;99.90;;;;;;4996818;28;20684;-39
2023/11/01 08:16:48;;;;;;;1.30;1.20;;;7.90;99.90;;;;;;4997564;28;20018;-39
2023/11/01 08:19:17;;;;;;;1.42;1.33;;;8.10;99.90;;;;;;5001492;28;20033;-38
2023/11/01 08:21:43;;;;;;;1.35;1.20;;;8.20;99.90;;;;;;5005163;28;20029;-36
2023/11/01 08:24:08;;;;;;;1.55;1.20;;;8.40;99.90;;;;;;5002623;28;20037;-39
2023/11/01 08:26:34;;;;;;;2.10;1.00;;;8.60;99.90;;;;;;5003891;28;20026;-39
2023/11/01 08:29:00;;;;;;;1.10;1.00;;;8.70;99.90;;;;;;5003063;28;20025;-38
2023/11/01 08:31:26;;;;;;;1.77;1.20;;;8.90;99.90;;;;;;4997808;28;20096;-39
2023/11/01 08:33:51;;;;;;;1.20;1.10;;;9.10;99.90;;;;;;5001837;28;20046;-36
2023/11/01 08:36:17;;;;;;;1.30;1.20;;;9.30;99.90;;;;;;5001444;28;20390;-36
2023/11/01 08:38:43;;;;;;;0.90;0.90;;;9.40;99.90;;;;;;4999734;28;21127;-39
2023/11/01 08:41:12;;;;;;;0.75;0.75;;;9.50;99.90;;;;;;5001743;28;20611;-40
2023/11/01 08:43:37;;;;;;;1.38;0.77;;;9.60;99.90;;;;;;5001569;28;20030;-38
2023/11/01 08:46:03;;;;;;;0.77;0.77;;;9.70;99.90;;;;;;5001104;28;20033;-40
2023/11/01 08:48:29;;;;;;;1.67;0.60;;;9.80;99.90;;;;;;5002290;28;20026;-38
2023/11/01 08:50:55;;;;;;;0.70;0.68;;;9.80;99.90;;;;;;5001621;28;20479;-40
2023/11/01 08:53:20;;;;;;;0.75;0.75;;;10.00;99.90;;;;;;4997733;28;20037;-37
2023/11/01 08:55:46;;;;;;;1.85;0.80;;;10.10;99.90;;;;;;5003383;28;20033;-38
2023/11/01 08:58:11;;;;;;;0.60;0.60;;;10.20;99.90;;;;;;5002331;28;20109;-37
2023/11/01 09:00:37;;;;;;;0.90;0.70;;;10.30;99.90;;;;;;5000262;28;20042;-34
2023/11/01 09:03:03;;;;;;;0.90;0.70;;;10.40;99.90;;;;;;5001055;28;20124;-37
2023/11/01 09:05:28;;;;;;;1.45;0.85;;;10.60;99.90;;;;;;4997751;28;20041;-35
2023/11/01 09:07:54;;;;;;;1.00;1.00;;;10.70;99.90;;;;;;4997406;28;20088;-40
2023/11/01 09:10:20;;;;;;;10.63;9.63;;;10.90;99.90;;;;;;5002417;28;20120;-38
2023/11/01 09:12:45;;;;;;;5.30;4.80;;;11.00;99.90;;;;;;4999907;28;20794;-39
2023/11/01 09:15:11;;;;;;;1.55;1.45;;;11.10;99.90;;;;;;5002925;28;20050;-36
2023/11/01 09:17:36;;;;;;;0.85;0.85;;;11.30;99.90;;;;;;5002614;28;20025;-39
2023/11/01 09:20:02;;;;;;;1.13;0.90;;;11.40;99.90;;;;;;5001943;28;20026;-38
2023/11/01 09:22:30;;;;;;;2.20;2.05;;;11.50;99.90;;;;;;4996386;28;20121;-40
2023/11/01 09:24:55;;;;;;;1.80;1.17;;;11.60;99.90;;;;;;4985622;28;20070;-39
2023/11/01 09:27:21;;;;;;;5.95;4.32;;;11.60;99.90;;;;;;5001913;28;20549;-39
2023/11/01 09:29:46;;;;;;;12.90;8.02;;;11.70;99.90;;;;;;4995524;28;20025;-39
2023/11/01 09:32:12;;;;;;;6.45;4.20;;;11.80;99.90;;;;;;5002056;28;20037;-39
2023/11/01 09:34:38;;;;;;;4.55;2.72;;;12.00;99.90;;;;;;5002040;28;20416;-37
2023/11/01 09:37:04;;;;;;;7.50;3.22;;;12.10;99.90;;;;;;5004255;28;20576;-38
2023/11/01 09:39:30;;;;;;;7.63;3.67;;;12.20;99.90;;;;;;4999255;28;20032;-41
2023/11/01 09:42:20;;;;;;;1.55;1.20;;;12.20;99.90;;;;;;5003727;28;20041;-41
2023/11/01 09:44:57;;;;;;;2.08;1.75;;;12.30;99.90;;;;;;5000189;28;20124;-41
2023/11/01 09:47:26;;;;;;;1.17;0.73;;;12.40;99.90;;;;;;4999182;28;20646;-40
2023/11/01 09:49:54;;;;;;;0.75;0.70;;;12.40;99.90;;;;;;5000453;28;20110;-40
2023/11/01 09:52:24;;;;;;;1.08;0.80;;;12.50;99.90;;;;;;4998547;28;20034;-37
2023/11/01 09:54:51;;;;;;;0.60;0.60;;;12.50;99.90;;;;;;5001274;28;20543;-40
2023/11/01 09:57:20;;;;;;;0.63;0.63;;;12.50;99.90;;;;;;5002719;28;20496;-38
2023/11/01 09:59:46;;;;;;;0.95;0.50;;;12.50;99.90;;;;;;5003122;28;20037;-39
2023/11/01 10:02:12;;;;;;;0.60;0.60;;;12.60;99.90;;;;;;5000868;28;20034;-41
2023/11/01 10:04:39;;;;;;;0.50;0.50;;;12.60;99.90;;;;;;5001155;28;20143;-43
2023/11/01 10:07:05;;;;;;;1.05;0.80;;;12.70;99.90;;;;;;5001846;28;20030;-42
2023/11/01 10:09:32;;;;;;;0.63;0.63;;;12.70;99.90;;;;;;5000358;28;20444;-43
2023/11/01 10:12:08;;;;;;;0.73;0.73;;;12.80;99.90;;;;;;4983271;28;21989;-41
2023/11/01 10:14:35;;;;;;;0.43;0.43;;;12.80;99.90;;;;;;5001864;28;20101;-39
2023/11/01 10:17:02;;;;;;;0.40;0.40;;;12.90;99.90;;;;;;5000349;28;20128;-39
2023/11/01 10:19:28;;;;;;;0.52;0.52;;;12.90;99.90;;;;;;4981068;28;20030;-39
2023/11/01 10:21:55;;;;;;;0.50;0.50;;;12.90;99.90;;;;;;4999399;28;20037;-31
2023/11/01 10:24:23;;;;;;;0.80;0.70;;;13.10;99.90;;;;;;4999110;28;20108;-34
2023/11/01 10:26:50;;;;;;;0.70;0.65;;;13.20;99.90;;;;;;5003137;28;20025;-32
2023/11/01 10:29:16;;;;;;;0.50;0.50;;;13.30;99.90;;;;;;5002393;28;20038;-33
2023/11/01 10:31:41;;;;;;;0.77;0.55;;;13.40;99.90;;;;;;5001447;28;20459;-36
2023/11/01 10:34:14;;;;;;;2.05;0.57;;;13.40;99.90;;;;;;5003217;28;20137;-32
2023/11/01 10:36:59;;;;;;;1.45;0.60;;;13.30;99.90;;;;;;5005296;28;20038;-32
2023/11/01 10:39:26;;;;;;;2.05;0.57;;;13.40;99.90;;;;;;5001229;28;20037;-35
2023/11/01 10:41:55;;;;;;;0.43;0.43;;;13.40;99.90;;;;;;5002410;28;20026;-33
2023/11/01 10:44:22;;;;;;;1.63;0.50;;;13.40;99.90;;;;;;4999677;28;20029;-33
2023/11/01 10:46:49;;;;;;;1.77;0.43;;;13.50;99.90;;;;;;4999275;28;20041;-32
2023/11/01 10:49:16;;;;;;;2.90;0.50;;;13.50;99.90;;;;;;5002621;28;20029;-32
2023/11/01 10:51:42;;;;;;;0.80;0.60;;;13.50;99.90;;;;;;4999359;28;20100;-33
2023/11/01 10:54:10;;;;;;;0.50;0.50;;;13.60;99.90;;;;;;5000003;28;20128;-32
2023/11/01 10:56:36;;;;;;;0.60;0.40;;;13.50;99.90;;;;;;5002670;28;20088;-33
2023/11/01 10:59:08;;;;;;;0.43;0.43;;;13.60;99.90;;;;;;5003435;28;20022;-31
2023/11/01 11:01:44;;;;;;;0.90;0.60;;;13.70;99.90;;;;;;4999490;28;20119;-31
2023/11/01 11:04:26;;;;;;;0.40;0.40;;;13.70;99.90;;;;;;4983597;28;20742;-37
2023/11/01 11:06:59;;;;;;;1.33;0.60;;;13.70;99.90;;;;;;5004970;28;20030;-32
2023/11/01 11:09:26;;;;;;;1.17;0.55;;;13.80;99.90;;;;;;5001915;28;20034;-32
2023/11/01 11:12:14;;;;;;;0.50;0.50;;;13.90;99.90;;;;;;5004052;28;20626;-31
2023/11/01 11:14:42;;;;;;;1.08;0.47;;;13.90;99.90;;;;;;5004413;28;20029;-37
2023/11/01 11:17:11;;;;;;;0.75;0.50;;;13.90;99.90;;;;;;5000121;28;20447;-31
2023/11/01 11:20:05;;;;;;;1.60;0.70;;;13.90;99.90;;;;;;5002980;28;20117;-35
2023/11/01 11:23:02;;;;;;;1.67;0.52;;;13.90;99.90;;;;;;5005273;28;20042;-33
2023/11/01 11:25:48;;;;;;;2.20;0.60;;;13.90;99.90;;;;;;4999445;28;20034;-35
2023/11/01 11:28:26;;;;;;;1.63;0.50;;;13.90;99.90;;;;;;5000609;28;20041;-36
2023/11/01 11:31:12;;;;;;;2.22;0.60;;;13.90;99.90;;;;;;5000884;28;20510;-32
2023/11/01 11:33:59;;;;;;;1.02;0.95;;;13.90;99.90;;;;;;4985582;28;20084;-40
2023/11/01 11:36:26;;;;;;;1.27;0.45;;;13.80;99.90;;;;;;5001731;28;20141;-40
2023/11/01 11:38:55;;;;;;;1.35;0.60;;;13.80;99.90;;;;;;5001870;28;20037;-41
2023/11/01 11:41:23;;;;;;;0.50;0.50;;;14.00;99.90;;;;;;5002766;28;20038;-32
2023/11/01 11:44:03;;;;;;;0.95;0.60;;;14.10;99.90;;;;;;4991063;28;20030;-32
2023/11/01 11:46:40;;;;;;;0.60;0.60;;;14.20;99.90;;;;;;4999021;28;20030;-32
2023/11/01 11:49:07;;;;;;;0.70;0.65;;;14.30;99.90;;;;;;4999486;28;20027;-30
2023/11/01 11:51:34;;;;;;;0.35;0.35;;;14.30;99.90;;;;;;4987468;28;20058;-30
2023/11/01 11:54:30;;;;;;;2.40;0.82;;;14.40;99.90;;;;;;4984262;28;20121;-32
2023/11/01 11:56:58;;;;;;;2.08;0.50;;;14.40;99.90;;;;;;4987810;28;20046;-32
2023/11/01 11:59:25;;;;;;;0.50;0.45;;;14.40;99.90;;;;;;4999678;28;20032;-33
2023/11/01 12:01:52;;;;;;;0.97;0.50;;;14.30;99.90;;;;;;5001617;28;20042;-33
2023/11/01 12:04:19;;;;;;;1.90;0.93;;;14.30;99.90;;;;;;5002502;28;20037;-33
2023/11/01 12:06:53;;;;;;;3.40;2.85;;;14.30;99.90;;;;;;5000302;28;20366;-34
2023/11/01 12:09:21;;;;;;;3.83;1.33;;;14.30;99.90;;;;;;5002424;28;20058;-31
2023/11/01 12:11:49;;;;;;;1.35;0.60;;;14.30;99.90;;;;;;5001508;28;20038;-32
2023/11/01 12:14:19;;;;;;;1.48;0.50;;;14.30;99.90;;;;;;4999364;28;20034;-33
2023/11/01 12:16:46;;;;;;;1.60;0.52;;;14.40;99.90;;;;;;5002502;28;20022;-31
2023/11/01 12:19:19;;;;;;;1.55;0.40;;;14.40;99.90;;;;;;4981685;28;20034;-37
2023/11/01 12:22:08;;;;;;;1.08;0.80;;;14.50;99.90;;;;;;4999028;28;20172;-36
2023/11/01 12:24:36;;;;;;;2.72;1.25;;;14.50;99.90;;;;;;4998708;28;20029;-35
2023/11/01 12:27:03;;;;;;;4.38;1.75;;;14.50;99.90;;;;;;4999935;28;20034;-32
2023/11/01 12:29:45;;;;;;;5.50;2.92;;;14.40;99.90;;;;;;4998527;28;20069;-35
2023/11/01 12:32:16;;;;;;;7.47;4.82;;;14.40;99.90;;;;;;5000874;28;20038;-36
2023/11/01 12:34:48;;;;;;;2.47;1.60;;;14.30;99.90;;;;;;5003035;28;20042;-38
2023/11/01 12:37:14;;;;;;;3.00;1.52;;;14.30;99.90;;;;;;5007810;28;20506;-31
2023/11/01 12:39:58;;;;;;;1.27;1.00;;;14.30;99.90;;;;;;5004254;28;20026;-35
2023/11/01 12:42:26;;;;;;;4.43;1.80;;;14.30;99.90;;;;;;4988253;28;20701;-37
2023/11/01 12:44:54;;;;;;;1.30;0.90;;;14.40;99.90;;;;;;5002756;28;20108;-40
2023/11/01 12:47:21;;;;;;;1.83;0.98;;;14.40;99.90;;;;;;5000965;28;20022;-41
2023/11/01 12:49:48;;;;;;;3.10;1.60;;;14.50;99.90;;;;;;5003805;28;20030;-39
2023/11/01 12:52:14;;;;;;;0.95;0.73;;;14.50;99.90;;;;;;5001256;28;20477;-33
2023/11/01 12:54:44;;;;;;;1.70;0.77;;;14.60;99.90;;;;;;5006839;28;20112;-34